sensor_id;sensor_type;location;lat;lon;timestamp;P1;durP1;ratioP1;P2;durP2;ratioP2
19329;SDS011;9799;48.214;16.388;2022-09-17T00:03:08;3.57;;;3.27;;
19329;SDS011;9799;48.214;16.388;2022-09-17T00:06:30;7.83;;;4.00;;
19329;SDS011;9799;48.214;16.388;2022-09-17T00:09:54;6.43;;;3.30;;
19329;SDS011;9799;48.214;16.388;2022-09-17T00:13:15;3.80;;;3.17;;
19329;SDS011;9799;48.214;16.388;2022-09-17T00:16:38;3.30;;;3.00;;
19329;SDS011;9799;48.214;16.388;2022-09-17T00:20:00;4.50;;;3.90;;
19329;SDS011;9799;48.214;16.388;2022-09-17T00:23:22;3.17;;;2.83;;
19329;SDS011;9799;48.214;16.388;2022-09-17T00:26:45;3.30;;;3.00;;
19329;SDS011;9799;48.214;16.388;2022-09-17T00:30:07;5.40;;;3.30;;
19329;SDS011;9799;48.214;16.388;2022-09-17T00:33:29;3.93;;;3.63;;
19329;SDS011;9799;48.214;16.388;2022-09-17T00:36:50;3.50;;;3.13;;
19329;SDS011;9799;48.214;16.388;2022-09-17T00:40:11;6.43;;;3.90;;
19329;SDS011;9799;48.214;16.388;2022-09-17T00:43:35;6.40;;;3.40;;
19329;SDS011;9799;48.214;16.388;2022-09-17T00:46:59;3.80;;;3.40;;
19329;SDS011;9799;48.214;16.388;2022-09-17T00:50:20;4.50;;;3.70;;
19329;SDS011;9799;48.214;16.388;2022-09-17T00:53:45;4.77;;;4.07;;
19329;SDS011;9799;48.214;16.388;2022-09-17T00:57:07;5.30;;;3.53;;
19329;SDS011;9799;48.214;16.388;2022-09-17T01:00:30;4.03;;;3.30;;
19329;SDS011;9799;48.214;16.388;2022-09-17T01:03:51;4.60;;;3.30;;
19329;SDS011;9799;48.214;16.388;2022-09-17T01:07:15;3.53;;;3.23;;
19329;SDS011;9799;48.214;16.388;2022-09-17T01:14:35;6.50;;;3.33;;
19329;SDS011;9799;48.214;16.388;2022-09-17T01:18:10;3.60;;;3.30;;
19329;SDS011;9799;48.214;16.388;2022-09-17T01:21:44;4.47;;;3.37;;
19329;SDS011;9799;48.214;16.388;2022-09-17T01:25:17;3.43;;;3.13;;
19329;SDS011;9799;48.214;16.388;2022-09-17T01:28:43;3.70;;;3.40;;
19329;SDS011;9799;48.214;16.388;2022-09-17T01:32:10;6.10;;;3.20;;
19329;SDS011;9799;48.214;16.388;2022-09-17T01:35:37;4.50;;;3.80;;
19329;SDS011;9799;48.214;16.388;2022-09-17T01:39:09;4.00;;;3.67;;
19329;SDS011;9799;48.214;16.388;2022-09-17T01:42:36;4.40;;;3.20;;
19329;SDS011;9799;48.214;16.388;2022-09-17T01:46:06;3.67;;;3.30;;
19329;SDS011;9799;48.214;16.388;2022-09-17T01:49:34;6.00;;;3.57;;
19329;SDS011;9799;48.214;16.388;2022-09-17T01:52:57;5.50;;;3.77;;
19329;SDS011;9799;48.214;16.388;2022-09-17T01:56:23;3.77;;;3.47;;
19329;SDS011;9799;48.214;16.388;2022-09-17T01:59:47;4.47;;;3.77;;
19329;SDS011;9799;48.214;16.388;2022-09-17T02:03:15;4.57;;;3.70;;
19329;SDS011;9799;48.214;16.388;2022-09-17T02:06:44;3.57;;;3.27;;
19329;SDS011;9799;48.214;16.388;2022-09-17T02:10:11;5.97;;;4.97;;
19329;SDS011;9799;48.214;16.388;2022-09-17T02:13:36;5.37;;;4.77;;
19329;SDS011;9799;48.214;16.388;2022-09-17T02:17:03;4.80;;;3.73;;
19329;SDS011;9799;48.214;16.388;2022-09-17T02:20:32;5.37;;;4.27;;
19329;SDS011;9799;48.214;16.388;2022-09-17T02:24:02;4.77;;;4.37;;
19329;SDS011;9799;48.214;16.388;2022-09-17T02:27:30;4.50;;;3.67;;
19329;SDS011;9799;48.214;16.388;2022-09-17T02:31:01;4.97;;;4.43;;
19329;SDS011;9799;48.214;16.388;2022-09-17T02:34:22;4.93;;;4.43;;
19329;SDS011;9799;48.214;16.388;2022-09-17T02:37:46;5.03;;;4.03;;
19329;SDS011;9799;48.214;16.388;2022-09-17T02:41:10;4.43;;;4.03;;
19329;SDS011;9799;48.214;16.388;2022-09-17T02:44:37;6.33;;;4.20;;
19329;SDS011;9799;48.214;16.388;2022-09-17T02:48:11;3.80;;;3.40;;
19329;SDS011;9799;48.214;16.388;2022-09-17T02:51:44;5.07;;;4.13;;
19329;SDS011;9799;48.214;16.388;2022-09-17T02:55:15;4.93;;;3.90;;
19329;SDS011;9799;48.214;16.388;2022-09-17T02:58:43;5.10;;;4.30;;
19329;SDS011;9799;48.214;16.388;2022-09-17T03:02:08;10.27;;;4.20;;
19329;SDS011;9799;48.214;16.388;2022-09-17T03:05:35;4.60;;;4.20;;
19329;SDS011;9799;48.214;16.388;2022-09-17T03:09:00;4.33;;;3.73;;
19329;SDS011;9799;48.214;16.388;2022-09-17T03:12:21;4.27;;;3.87;;
19329;SDS011;9799;48.214;16.388;2022-09-17T03:15:44;4.73;;;3.93;;
19329;SDS011;9799;48.214;16.388;2022-09-17T03:19:05;7.27;;;3.80;;
19329;SDS011;9799;48.214;16.388;2022-09-17T03:22:26;3.80;;;3.43;;
19329;SDS011;9799;48.214;16.388;2022-09-17T03:25:47;4.93;;;3.50;;
19329;SDS011;9799;48.214;16.388;2022-09-17T03:29:08;5.20;;;3.63;;
19329;SDS011;9799;48.214;16.388;2022-09-17T03:32:31;4.50;;;3.70;;
19329;SDS011;9799;48.214;16.388;2022-09-17T03:35:52;4.23;;;3.83;;
19329;SDS011;9799;48.214;16.388;2022-09-17T03:39:13;3.73;;;3.43;;
19329;SDS011;9799;48.214;16.388;2022-09-17T03:42:37;4.53;;;3.87;;
19329;SDS011;9799;48.214;16.388;2022-09-17T03:45:58;5.40;;;3.83;;
19329;SDS011;9799;48.214;16.388;2022-09-17T03:49:21;7.17;;;4.53;;
19329;SDS011;9799;48.214;16.388;2022-09-17T03:52:43;3.60;;;3.30;;
19329;SDS011;9799;48.214;16.388;2022-09-17T03:56:05;3.80;;;3.50;;
19329;SDS011;9799;48.214;16.388;2022-09-17T03:59:26;4.23;;;3.83;;
19329;SDS011;9799;48.214;16.388;2022-09-17T04:02:48;3.67;;;3.37;;
19329;SDS011;9799;48.214;16.388;2022-09-17T04:06:10;4.07;;;3.67;;
19329;SDS011;9799;48.214;16.388;2022-09-17T04:09:31;3.37;;;3.10;;
19329;SDS011;9799;48.214;16.388;2022-09-17T04:12:52;4.47;;;3.77;;
19329;SDS011;9799;48.214;16.388;2022-09-17T04:16:14;5.27;;;4.17;;
19329;SDS011;9799;48.214;16.388;2022-09-17T04:19:35;5.23;;;4.07;;
19329;SDS011;9799;48.214;16.388;2022-09-17T04:22:57;4.20;;;3.80;;
19329;SDS011;9799;48.214;16.388;2022-09-17T04:26:18;4.87;;;4.47;;
19329;SDS011;9799;48.214;16.388;2022-09-17T04:29:40;4.67;;;4.20;;
19329;SDS011;9799;48.214;16.388;2022-09-17T04:33:02;4.67;;;4.17;;
19329;SDS011;9799;48.214;16.388;2022-09-17T04:36:23;7.20;;;4.50;;
19329;SDS011;9799;48.214;16.388;2022-09-17T04:39:46;4.10;;;3.70;;
19329;SDS011;9799;48.214;16.388;2022-09-17T04:43:07;6.53;;;4.47;;
19329;SDS011;9799;48.214;16.388;2022-09-17T04:46:28;4.60;;;4.10;;
19329;SDS011;9799;48.214;16.388;2022-09-17T04:49:50;5.20;;;4.70;;
19329;SDS011;9799;48.214;16.388;2022-09-17T04:53:11;6.93;;;6.23;;
19329;SDS011;9799;48.214;16.388;2022-09-17T04:56:33;6.60;;;5.07;;
19329;SDS011;9799;48.214;16.388;2022-09-17T04:59:54;6.40;;;4.80;;
19329;SDS011;9799;48.214;16.388;2022-09-17T05:03:15;4.80;;;4.30;;
19329;SDS011;9799;48.214;16.388;2022-09-17T05:06:39;6.13;;;4.60;;
19329;SDS011;9799;48.214;16.388;2022-09-17T05:10:01;6.30;;;4.80;;
19329;SDS011;9799;48.214;16.388;2022-09-17T05:13:23;6.90;;;4.83;;
19329;SDS011;9799;48.214;16.388;2022-09-17T05:16:44;8.20;;;4.60;;
19329;SDS011;9799;48.214;16.388;2022-09-17T05:20:05;5.67;;;5.10;;
19329;SDS011;9799;48.214;16.388;2022-09-17T05:23:28;5.77;;;5.27;;
19329;SDS011;9799;48.214;16.388;2022-09-17T05:26:49;5.97;;;4.63;;
19329;SDS011;9799;48.214;16.388;2022-09-17T05:30:12;5.53;;;4.80;;
19329;SDS011;9799;48.214;16.388;2022-09-17T05:33:33;5.20;;;4.80;;
19329;SDS011;9799;48.214;16.388;2022-09-17T05:36:54;4.97;;;4.43;;
19329;SDS011;9799;48.214;16.388;2022-09-17T05:40:15;5.07;;;4.53;;
19329;SDS011;9799;48.214;16.388;2022-09-17T05:43:36;7.27;;;4.97;;
19329;SDS011;9799;48.214;16.388;2022-09-17T05:46:59;5.50;;;3.80;;
19329;SDS011;9799;48.214;16.388;2022-09-17T05:50:20;4.20;;;3.90;;
19329;SDS011;9799;48.214;16.388;2022-09-17T05:53:41;4.57;;;4.17;;
19329;SDS011;9799;48.214;16.388;2022-09-17T05:57:03;4.33;;;3.93;;
19329;SDS011;9799;48.214;16.388;2022-09-17T06:00:24;4.80;;;4.40;;
19329;SDS011;9799;48.214;16.388;2022-09-17T06:03:47;4.90;;;4.10;;
19329;SDS011;9799;48.214;16.388;2022-09-17T06:07:08;5.17;;;4.67;;
19329;SDS011;9799;48.214;16.388;2022-09-17T06:10:29;4.20;;;3.57;;
19329;SDS011;9799;48.214;16.388;2022-09-17T06:13:51;4.10;;;3.80;;
19329;SDS011;9799;48.214;16.388;2022-09-17T06:17:13;4.70;;;3.77;;
19329;SDS011;9799;48.214;16.388;2022-09-17T06:20:35;3.73;;;3.37;;
19329;SDS011;9799;48.214;16.388;2022-09-17T06:23:56;3.93;;;3.33;;
19329;SDS011;9799;48.214;16.388;2022-09-17T06:27:18;4.43;;;3.50;;
19329;SDS011;9799;48.214;16.388;2022-09-17T06:30:39;7.80;;;3.90;;
19329;SDS011;9799;48.214;16.388;2022-09-17T06:34:00;4.03;;;3.70;;
19329;SDS011;9799;48.214;16.388;2022-09-17T06:37:27;5.73;;;3.37;;
19329;SDS011;9799;48.214;16.388;2022-09-17T06:40:49;4.00;;;3.37;;
19329;SDS011;9799;48.214;16.388;2022-09-17T06:44:11;3.83;;;3.43;;
19329;SDS011;9799;48.214;16.388;2022-09-17T06:47:32;4.03;;;3.70;;
19329;SDS011;9799;48.214;16.388;2022-09-17T06:50:53;4.83;;;3.43;;
19329;SDS011;9799;48.214;16.388;2022-09-17T06:54:16;3.30;;;3.00;;
19329;SDS011;9799;48.214;16.388;2022-09-17T06:57:37;3.80;;;3.13;;
19329;SDS011;9799;48.214;16.388;2022-09-17T07:00:58;4.03;;;3.63;;
19329;SDS011;9799;48.214;16.388;2022-09-17T07:04:20;3.00;;;2.80;;
19329;SDS011;9799;48.214;16.388;2022-09-17T07:07:41;3.57;;;3.27;;
19329;SDS011;9799;48.214;16.388;2022-09-17T07:11:04;3.87;;;3.40;;
19329;SDS011;9799;48.214;16.388;2022-09-17T07:14:26;4.07;;;3.20;;
19329;SDS011;9799;48.214;16.388;2022-09-17T07:17:47;2.97;;;2.77;;
19329;SDS011;9799;48.214;16.388;2022-09-17T07:21:08;3.60;;;3.13;;
19329;SDS011;9799;48.214;16.388;2022-09-17T07:24:29;2.77;;;2.57;;
19329;SDS011;9799;48.214;16.388;2022-09-17T07:27:52;2.67;;;2.47;;
19329;SDS011;9799;48.214;16.388;2022-09-17T07:31:14;3.40;;;3.10;;
19329;SDS011;9799;48.214;16.388;2022-09-17T07:34:36;5.10;;;2.70;;
19329;SDS011;9799;48.214;16.388;2022-09-17T07:37:57;4.17;;;3.50;;
19329;SDS011;9799;48.214;16.388;2022-09-17T07:41:18;3.40;;;3.10;;
19329;SDS011;9799;48.214;16.388;2022-09-17T07:44:40;3.47;;;3.17;;
19329;SDS011;9799;48.214;16.388;2022-09-17T07:48:02;4.70;;;4.00;;
19329;SDS011;9799;48.214;16.388;2022-09-17T07:51:24;3.20;;;3.00;;
19329;SDS011;9799;48.214;16.388;2022-09-17T07:54:47;3.63;;;3.10;;
19329;SDS011;9799;48.214;16.388;2022-09-17T07:58:08;4.77;;;3.07;;
19329;SDS011;9799;48.214;16.388;2022-09-17T08:01:31;4.70;;;3.03;;
19329;SDS011;9799;48.214;16.388;2022-09-17T08:04:54;5.20;;;4.27;;
19329;SDS011;9799;48.214;16.388;2022-09-17T08:08:15;6.70;;;3.47;;
19329;SDS011;9799;48.214;16.388;2022-09-17T08:11:36;3.73;;;3.43;;
19329;SDS011;9799;48.214;16.388;2022-09-17T08:14:57;2.80;;;2.60;;
19329;SDS011;9799;48.214;16.388;2022-09-17T08:18:20;3.60;;;2.90;;
19329;SDS011;9799;48.214;16.388;2022-09-17T08:21:41;4.23;;;3.47;;
19329;SDS011;9799;48.214;16.388;2022-09-17T08:25:02;3.30;;;3.10;;
19329;SDS011;9799;48.214;16.388;2022-09-17T08:28:24;4.53;;;3.43;;
19329;SDS011;9799;48.214;16.388;2022-09-17T08:31:47;2.90;;;2.70;;
19329;SDS011;9799;48.214;16.388;2022-09-17T08:35:09;3.60;;;3.30;;
19329;SDS011;9799;48.214;16.388;2022-09-17T08:38:31;3.20;;;3.00;;
19329;SDS011;9799;48.214;16.388;2022-09-17T08:42:00;3.23;;;2.93;;
19329;SDS011;9799;48.214;16.388;2022-09-17T08:45:28;3.40;;;3.10;;
19329;SDS011;9799;48.214;16.388;2022-09-17T08:48:51;3.67;;;3.30;;
19329;SDS011;9799;48.214;16.388;2022-09-17T08:56:09;4.80;;;2.70;;
19329;SDS011;9799;48.214;16.388;2022-09-17T08:59:33;3.83;;;2.73;;
19329;SDS011;9799;48.214;16.388;2022-09-17T09:03:02;3.10;;;2.30;;
19329;SDS011;9799;48.214;16.388;2022-09-17T09:06:36;4.33;;;2.97;;
19329;SDS011;9799;48.214;16.388;2022-09-17T09:10:09;6.27;;;2.73;;
19329;SDS011;9799;48.214;16.388;2022-09-17T09:13:36;2.47;;;2.27;;
19329;SDS011;9799;48.214;16.388;2022-09-17T09:17:02;4.30;;;2.90;;
19329;SDS011;9799;48.214;16.388;2022-09-17T09:20:29;4.33;;;2.13;;
19329;SDS011;9799;48.214;16.388;2022-09-17T09:24:00;4.07;;;2.23;;
19329;SDS011;9799;48.214;16.388;2022-09-17T09:27:31;1.77;;;1.67;;
19329;SDS011;9799;48.214;16.388;2022-09-17T09:30:57;3.90;;;2.47;;
19329;SDS011;9799;48.214;16.388;2022-09-17T09:34:29;1.80;;;1.70;;
19329;SDS011;9799;48.214;16.388;2022-09-17T09:37:56;3.07;;;1.80;;
19329;SDS011;9799;48.214;16.388;2022-09-17T09:41:21;2.10;;;1.90;;
19329;SDS011;9799;48.214;16.388;2022-09-17T09:44:48;3.27;;;1.87;;
19329;SDS011;9799;48.214;16.388;2022-09-17T09:48:10;2.97;;;1.80;;
19329;SDS011;9799;48.214;16.388;2022-09-17T09:51:48;2.40;;;1.83;;
19329;SDS011;9799;48.214;16.388;2022-09-17T09:55:19;2.63;;;2.13;;
19329;SDS011;9799;48.214;16.388;2022-09-17T09:58:54;2.50;;;2.07;;
19329;SDS011;9799;48.214;16.388;2022-09-17T10:02:16;4.63;;;1.97;;
19329;SDS011;9799;48.214;16.388;2022-09-17T10:05:38;3.10;;;2.17;;
19329;SDS011;9799;48.214;16.388;2022-09-17T10:09:09;4.07;;;1.83;;
19329;SDS011;9799;48.214;16.388;2022-09-17T10:12:32;2.53;;;2.27;;
19329;SDS011;9799;48.214;16.388;2022-09-17T10:15:53;4.67;;;2.43;;
19329;SDS011;9799;48.214;16.388;2022-09-17T10:19:19;3.03;;;2.13;;
19329;SDS011;9799;48.214;16.388;2022-09-17T10:22:43;3.97;;;2.47;;
19329;SDS011;9799;48.214;16.388;2022-09-17T10:26:06;2.60;;;2.13;;
19329;SDS011;9799;48.214;16.388;2022-09-17T10:29:40;4.07;;;2.03;;
19329;SDS011;9799;48.214;16.388;2022-09-17T10:33:15;4.93;;;2.00;;
19329;SDS011;9799;48.214;16.388;2022-09-17T10:36:42;2.30;;;2.10;;
19329;SDS011;9799;48.214;16.388;2022-09-17T10:40:19;4.03;;;3.17;;
19329;SDS011;9799;48.214;16.388;2022-09-17T10:43:45;2.00;;;1.80;;
19329;SDS011;9799;48.214;16.388;2022-09-17T10:47:10;4.70;;;2.13;;
19329;SDS011;9799;48.214;16.388;2022-09-17T10:50:33;2.90;;;1.83;;
19329;SDS011;9799;48.214;16.388;2022-09-17T10:54:03;2.37;;;2.17;;
19329;SDS011;9799;48.214;16.388;2022-09-17T10:57:45;5.67;;;2.37;;
19329;SDS011;9799;48.214;16.388;2022-09-17T11:01:20;2.53;;;1.77;;
19329;SDS011;9799;48.214;16.388;2022-09-17T11:04:51;1.87;;;1.73;;
19329;SDS011;9799;48.214;16.388;2022-09-17T11:08:21;2.10;;;1.90;;
19329;SDS011;9799;48.214;16.388;2022-09-17T11:11:57;2.33;;;1.63;;
19329;SDS011;9799;48.214;16.388;2022-09-17T11:15:33;2.10;;;1.87;;
19329;SDS011;9799;48.214;16.388;2022-09-17T11:19:09;3.80;;;2.17;;
19329;SDS011;9799;48.214;16.388;2022-09-17T11:22:42;2.70;;;1.67;;
19329;SDS011;9799;48.214;16.388;2022-09-17T11:26:14;3.37;;;1.90;;
19329;SDS011;9799;48.214;16.388;2022-09-17T11:29:57;5.67;;;2.10;;
19329;SDS011;9799;48.214;16.388;2022-09-17T11:33:27;2.30;;;2.03;;
19329;SDS011;9799;48.214;16.388;2022-09-17T11:37:04;2.33;;;2.13;;
19329;SDS011;9799;48.214;16.388;2022-09-17T11:40:31;2.50;;;2.23;;
19329;SDS011;9799;48.214;16.388;2022-09-17T11:43:59;2.40;;;1.80;;
19329;SDS011;9799;48.214;16.388;2022-09-17T11:47:29;2.67;;;2.10;;
19329;SDS011;9799;48.214;16.388;2022-09-17T11:50:55;3.83;;;1.93;;
19329;SDS011;9799;48.214;16.388;2022-09-17T11:54:21;3.20;;;2.47;;
19329;SDS011;9799;48.214;16.388;2022-09-17T11:57:45;3.40;;;2.20;;
19329;SDS011;9799;48.214;16.388;2022-09-17T12:01:10;2.40;;;1.90;;
19329;SDS011;9799;48.214;16.388;2022-09-17T12:04:40;2.40;;;2.20;;
19329;SDS011;9799;48.214;16.388;2022-09-17T12:08:07;2.77;;;1.80;;
19329;SDS011;9799;48.214;16.388;2022-09-17T12:11:37;3.67;;;2.40;;
19329;SDS011;9799;48.214;16.388;2022-09-17T12:15:05;2.30;;;2.10;;
19329;SDS011;9799;48.214;16.388;2022-09-17T12:18:41;2.57;;;2.30;;
19329;SDS011;9799;48.214;16.388;2022-09-17T12:22:16;3.33;;;2.50;;
19329;SDS011;9799;48.214;16.388;2022-09-17T12:25:42;4.27;;;2.30;;
19329;SDS011;9799;48.214;16.388;2022-09-17T12:29:14;4.07;;;2.10;;
19329;SDS011;9799;48.214;16.388;2022-09-17T12:32:51;4.50;;;2.70;;
19329;SDS011;9799;48.214;16.388;2022-09-17T12:36:25;2.50;;;2.30;;
19329;SDS011;9799;48.214;16.388;2022-09-17T12:43:45;7.57;;;2.53;;
19329;SDS011;9799;48.214;16.388;2022-09-17T12:47:32;3.97;;;2.47;;
19329;SDS011;9799;48.214;16.388;2022-09-17T12:51:14;3.50;;;2.70;;
19329;SDS011;9799;48.214;16.388;2022-09-17T12:55:04;6.43;;;2.60;;
19329;SDS011;9799;48.214;16.388;2022-09-17T12:59:01;2.90;;;2.60;;
19329;SDS011;9799;48.214;16.388;2022-09-17T13:02:29;5.03;;;2.83;;
19329;SDS011;9799;48.214;16.388;2022-09-17T13:06:02;3.73;;;2.40;;
19329;SDS011;9799;48.214;16.388;2022-09-17T13:09:44;5.10;;;2.37;;
19329;SDS011;9799;48.214;16.388;2022-09-17T13:13:25;4.50;;;2.20;;
19329;SDS011;9799;48.214;16.388;2022-09-17T13:16:58;2.40;;;2.20;;
19329;SDS011;9799;48.214;16.388;2022-09-17T13:20:25;7.93;;;2.60;;
19329;SDS011;9799;48.214;16.388;2022-09-17T13:23:50;2.53;;;2.33;;
19329;SDS011;9799;48.214;16.388;2022-09-17T13:27:18;8.57;;;2.43;;
19329;SDS011;9799;48.214;16.388;2022-09-17T13:30:54;4.07;;;2.40;;
19329;SDS011;9799;48.214;16.388;2022-09-17T13:37:57;3.67;;;2.53;;
19329;SDS011;9799;48.214;16.388;2022-09-17T13:41:19;2.50;;;2.30;;
19329;SDS011;9799;48.214;16.388;2022-09-17T13:44:43;4.60;;;2.50;;
19329;SDS011;9799;48.214;16.388;2022-09-17T13:48:08;3.63;;;2.00;;
19329;SDS011;9799;48.214;16.388;2022-09-17T13:51:42;5.27;;;3.20;;
19329;SDS011;9799;48.214;16.388;2022-09-17T13:55:29;3.10;;;2.17;;
19329;SDS011;9799;48.214;16.388;2022-09-17T13:58:53;2.70;;;2.50;;
19329;SDS011;9799;48.214;16.388;2022-09-17T14:05:54;3.83;;;2.17;;
19329;SDS011;9799;48.214;16.388;2022-09-17T14:09:43;4.17;;;2.00;;
19329;SDS011;9799;48.214;16.388;2022-09-17T14:17:04;5.33;;;2.17;;
19329;SDS011;9799;48.214;16.388;2022-09-17T14:20:27;2.87;;;1.87;;
19329;SDS011;9799;48.214;16.388;2022-09-17T14:23:51;2.33;;;1.60;;
19329;SDS011;9799;48.214;16.388;2022-09-17T14:27:28;2.97;;;1.80;;
19329;SDS011;9799;48.214;16.388;2022-09-17T14:31:02;3.90;;;2.30;;
19329;SDS011;9799;48.214;16.388;2022-09-17T14:34:35;5.23;;;2.07;;
19329;SDS011;9799;48.214;16.388;2022-09-17T14:37:57;4.53;;;2.20;;
19329;SDS011;9799;48.214;16.388;2022-09-17T14:41:20;2.70;;;2.20;;
19329;SDS011;9799;48.214;16.388;2022-09-17T14:44:48;3.80;;;2.07;;
19329;SDS011;9799;48.214;16.388;2022-09-17T14:48:17;3.30;;;1.97;;
19329;SDS011;9799;48.214;16.388;2022-09-17T14:51:47;4.03;;;2.00;;
19329;SDS011;9799;48.214;16.388;2022-09-17T14:55:10;3.90;;;2.00;;
19329;SDS011;9799;48.214;16.388;2022-09-17T14:58:36;2.80;;;2.20;;
19329;SDS011;9799;48.214;16.388;2022-09-17T15:02:17;5.90;;;2.53;;
19329;SDS011;9799;48.214;16.388;2022-09-17T15:05:50;4.13;;;2.30;;
19329;SDS011;9799;48.214;16.388;2022-09-17T15:09:13;2.37;;;2.00;;
19329;SDS011;9799;48.214;16.388;2022-09-17T15:12:36;6.47;;;2.63;;
19329;SDS011;9799;48.214;16.388;2022-09-17T15:15:59;2.97;;;1.80;;
19329;SDS011;9799;48.214;16.388;2022-09-17T15:19:24;2.17;;;1.80;;
19329;SDS011;9799;48.214;16.388;2022-09-17T15:22:52;3.17;;;1.93;;
19329;SDS011;9799;48.214;16.388;2022-09-17T15:26:20;3.33;;;2.43;;
19329;SDS011;9799;48.214;16.388;2022-09-17T15:29:46;4.00;;;1.63;;
19329;SDS011;9799;48.214;16.388;2022-09-17T15:33:10;3.23;;;1.50;;
19329;SDS011;9799;48.214;16.388;2022-09-17T15:36:33;2.23;;;1.50;;
19329;SDS011;9799;48.214;16.388;2022-09-17T15:39:54;2.33;;;1.90;;
19329;SDS011;9799;48.214;16.388;2022-09-17T15:43:20;1.57;;;1.47;;
19329;SDS011;9799;48.214;16.388;2022-09-17T15:46:46;1.73;;;1.50;;
19329;SDS011;9799;48.214;16.388;2022-09-17T15:50:14;2.17;;;1.73;;
19329;SDS011;9799;48.214;16.388;2022-09-17T15:53:38;1.63;;;1.20;;
19329;SDS011;9799;48.214;16.388;2022-09-17T15:57:12;1.30;;;1.27;;
19329;SDS011;9799;48.214;16.388;2022-09-17T16:00:34;1.60;;;1.50;;
19329;SDS011;9799;48.214;16.388;2022-09-17T16:04:06;1.47;;;1.30;;
19329;SDS011;9799;48.214;16.388;2022-09-17T16:07:35;1.93;;;1.33;;
19329;SDS011;9799;48.214;16.388;2022-09-17T16:11:00;2.47;;;1.50;;
19329;SDS011;9799;48.214;16.388;2022-09-17T16:14:21;7.00;;;1.70;;
19329;SDS011;9799;48.214;16.388;2022-09-17T16:17:43;2.67;;;1.40;;
19329;SDS011;9799;48.214;16.388;2022-09-17T16:21:06;1.40;;;1.30;;
19329;SDS011;9799;48.214;16.388;2022-09-17T16:24:29;1.40;;;1.27;;
19329;SDS011;9799;48.214;16.388;2022-09-17T16:27:52;2.23;;;1.10;;
19329;SDS011;9799;48.214;16.388;2022-09-17T16:31:16;1.20;;;1.10;;
19329;SDS011;9799;48.214;16.388;2022-09-17T16:34:37;1.83;;;1.27;;
19329;SDS011;9799;48.214;16.388;2022-09-17T16:37:59;1.70;;;1.33;;
19329;SDS011;9799;48.214;16.388;2022-09-17T16:41:20;1.93;;;1.30;;
19329;SDS011;9799;48.214;16.388;2022-09-17T16:44:42;1.50;;;1.07;;
19329;SDS011;9799;48.214;16.388;2022-09-17T16:48:04;2.47;;;1.10;;
19329;SDS011;9799;48.214;16.388;2022-09-17T16:51:25;1.00;;;0.97;;
19329;SDS011;9799;48.214;16.388;2022-09-17T16:54:46;1.20;;;1.00;;
19329;SDS011;9799;48.214;16.388;2022-09-17T16:58:07;0.93;;;0.90;;
19329;SDS011;9799;48.214;16.388;2022-09-17T17:01:30;1.10;;;0.90;;
19329;SDS011;9799;48.214;16.388;2022-09-17T17:04:51;1.00;;;0.80;;
19329;SDS011;9799;48.214;16.388;2022-09-17T17:08:12;1.27;;;1.00;;
19329;SDS011;9799;48.214;16.388;2022-09-17T17:11:34;0.80;;;0.80;;
19329;SDS011;9799;48.214;16.388;2022-09-17T17:14:55;1.00;;;1.00;;
19329;SDS011;9799;48.214;16.388;2022-09-17T17:18:19;1.30;;;1.20;;
19329;SDS011;9799;48.214;16.388;2022-09-17T17:21:41;2.20;;;1.23;;
19329;SDS011;9799;48.214;16.388;2022-09-17T17:25:02;1.83;;;1.50;;
19329;SDS011;9799;48.214;16.388;2022-09-17T17:28:24;3.83;;;1.63;;
19329;SDS011;9799;48.214;16.388;2022-09-17T17:31:45;3.53;;;1.57;;
19329;SDS011;9799;48.214;16.388;2022-09-17T17:35:08;2.60;;;1.90;;
19329;SDS011;9799;48.214;16.388;2022-09-17T17:38:30;6.03;;;1.90;;
19329;SDS011;9799;48.214;16.388;2022-09-17T17:41:51;2.33;;;1.83;;
19329;SDS011;9799;48.214;16.388;2022-09-17T17:45:14;2.73;;;2.33;;
19329;SDS011;9799;48.214;16.388;2022-09-17T17:48:35;2.03;;;1.77;;
19329;SDS011;9799;48.214;16.388;2022-09-17T17:51:58;1.80;;;1.50;;
19329;SDS011;9799;48.214;16.388;2022-09-17T17:55:19;3.50;;;2.00;;
19329;SDS011;9799;48.214;16.388;2022-09-17T17:58:41;3.17;;;2.03;;
19329;SDS011;9799;48.214;16.388;2022-09-17T18:02:02;3.17;;;2.20;;
19329;SDS011;9799;48.214;16.388;2022-09-17T18:05:23;1.90;;;1.70;;
19329;SDS011;9799;48.214;16.388;2022-09-17T18:08:45;2.20;;;1.70;;
19329;SDS011;9799;48.214;16.388;2022-09-17T18:12:07;1.50;;;1.40;;
19329;SDS011;9799;48.214;16.388;2022-09-17T18:15:28;2.67;;;1.70;;
19329;SDS011;9799;48.214;16.388;2022-09-17T18:18:49;1.90;;;1.57;;
19329;SDS011;9799;48.214;16.388;2022-09-17T18:22:10;2.30;;;1.67;;
19329;SDS011;9799;48.214;16.388;2022-09-17T18:25:32;1.53;;;1.30;;
19329;SDS011;9799;48.214;16.388;2022-09-17T18:28:54;1.83;;;1.37;;
19329;SDS011;9799;48.214;16.388;2022-09-17T18:32:15;2.17;;;1.67;;
19329;SDS011;9799;48.214;16.388;2022-09-17T18:35:37;3.90;;;1.40;;
19329;SDS011;9799;48.214;16.388;2022-09-17T18:38:58;2.27;;;1.60;;
19329;SDS011;9799;48.214;16.388;2022-09-17T18:42:22;1.90;;;1.77;;
19329;SDS011;9799;48.214;16.388;2022-09-17T18:45:51;2.07;;;1.60;;
19329;SDS011;9799;48.214;16.388;2022-09-17T18:49:12;4.50;;;1.93;;
19329;SDS011;9799;48.214;16.388;2022-09-17T18:52:34;2.17;;;1.90;;
19329;SDS011;9799;48.214;16.388;2022-09-17T18:55:57;2.63;;;1.80;;
19329;SDS011;9799;48.214;16.388;2022-09-17T18:59:22;2.40;;;1.73;;
19329;SDS011;9799;48.214;16.388;2022-09-17T19:02:43;2.23;;;1.97;;
19329;SDS011;9799;48.214;16.388;2022-09-17T19:06:05;3.67;;;1.77;;
19329;SDS011;9799;48.214;16.388;2022-09-17T19:09:28;2.63;;;2.00;;
19329;SDS011;9799;48.214;16.388;2022-09-17T19:12:50;1.70;;;1.47;;
19329;SDS011;9799;48.214;16.388;2022-09-17T19:16:12;4.60;;;1.60;;
19329;SDS011;9799;48.214;16.388;2022-09-17T19:19:34;3.87;;;2.23;;
19329;SDS011;9799;48.214;16.388;2022-09-17T19:22:55;2.57;;;1.80;;
19329;SDS011;9799;48.214;16.388;2022-09-17T19:26:17;2.97;;;2.00;;
19329;SDS011;9799;48.214;16.388;2022-09-17T19:29:40;2.43;;;1.93;;
19329;SDS011;9799;48.214;16.388;2022-09-17T19:33:02;3.87;;;2.27;;
19329;SDS011;9799;48.214;16.388;2022-09-17T19:36:23;5.23;;;1.70;;
19329;SDS011;9799;48.214;16.388;2022-09-17T19:39:45;3.33;;;1.80;;
19329;SDS011;9799;48.214;16.388;2022-09-17T19:43:06;2.37;;;2.00;;
19329;SDS011;9799;48.214;16.388;2022-09-17T19:46:30;3.07;;;2.17;;
19329;SDS011;9799;48.214;16.388;2022-09-17T19:49:52;3.63;;;2.20;;
19329;SDS011;9799;48.214;16.388;2022-09-17T19:53:13;3.27;;;1.90;;
19329;SDS011;9799;48.214;16.388;2022-09-17T19:56:34;2.90;;;2.40;;
19329;SDS011;9799;48.214;16.388;2022-09-17T19:59:55;3.10;;;2.20;;
19329;SDS011;9799;48.214;16.388;2022-09-17T20:03:16;5.10;;;2.70;;
19329;SDS011;9799;48.214;16.388;2022-09-17T20:06:39;4.63;;;3.03;;
19329;SDS011;9799;48.214;16.388;2022-09-17T20:10:00;6.13;;;3.00;;
19329;SDS011;9799;48.214;16.388;2022-09-17T20:13:22;3.60;;;2.83;;
19329;SDS011;9799;48.214;16.388;2022-09-17T20:16:44;5.80;;;3.07;;
19329;SDS011;9799;48.214;16.388;2022-09-17T20:20:06;3.27;;;2.70;;
19329;SDS011;9799;48.214;16.388;2022-09-17T20:23:29;4.70;;;2.47;;
19329;SDS011;9799;48.214;16.388;2022-09-17T20:26:51;3.03;;;2.57;;
19329;SDS011;9799;48.214;16.388;2022-09-17T20:30:12;3.90;;;2.87;;
19329;SDS011;9799;48.214;16.388;2022-09-17T20:33:34;2.87;;;2.03;;
19329;SDS011;9799;48.214;16.388;2022-09-17T20:36:55;2.70;;;2.20;;
19329;SDS011;9799;48.214;16.388;2022-09-17T20:40:18;2.57;;;1.87;;
19329;SDS011;9799;48.214;16.388;2022-09-17T20:43:39;2.57;;;2.17;;
19329;SDS011;9799;48.214;16.388;2022-09-17T20:47:01;2.93;;;2.03;;
19329;SDS011;9799;48.214;16.388;2022-09-17T20:50:23;2.87;;;2.47;;
19329;SDS011;9799;48.214;16.388;2022-09-17T20:53:45;3.20;;;2.00;;
19329;SDS011;9799;48.214;16.388;2022-09-17T20:57:07;3.67;;;2.20;;
19329;SDS011;9799;48.214;16.388;2022-09-17T21:00:28;3.00;;;2.07;;